createdAt,value
2023-02-19T00:01:08.147Z,54.88
2023-02-19T00:04:23.829Z,54.58
2023-02-19T00:07:28.637Z,54.16
2023-02-19T00:10:32.581Z,54.32
2023-02-19T00:13:38.753Z,54.54
2023-02-19T00:16:44.742Z,53.72
2023-02-19T00:19:49.828Z,54.33
2023-02-19T00:22:59.531Z,54.37
2023-02-19T00:26:17.495Z,54.29
2023-02-19T00:29:27.009Z,54.33
2023-02-19T00:32:32.560Z,54.32
2023-02-19T00:35:39.655Z,55.28
2023-02-19T00:38:45.747Z,55.86
2023-02-19T00:41:50.232Z,55.39
2023-02-19T00:44:55.271Z,57.41
2023-02-19T00:48:03.064Z,56.23
2023-02-19T00:51:08.786Z,56.68
2023-02-19T00:54:14.203Z,55.92
2023-02-19T00:57:17.970Z,56.21
2023-02-19T01:00:24.005Z,55.71
2023-02-19T01:03:31.207Z,55.66
2023-02-19T01:06:39.359Z,54.86
2023-02-19T01:09:44.581Z,55.86
2023-02-19T01:12:48.783Z,55.71
2023-02-19T01:15:53.990Z,56.68
2023-02-19T01:18:58.397Z,56.81
2023-02-19T01:22:03.512Z,57.78
2023-02-19T01:25:09.930Z,56.64
2023-02-19T01:28:14.150Z,56.59
2023-02-19T01:31:20.517Z,55.53
2023-02-19T01:34:24.557Z,55.48
2023-02-19T01:37:30.858Z,55.25
2023-02-19T01:40:39.729Z,55.83
2023-02-19T01:44:04.525Z,55.87
2023-02-19T01:47:08.353Z,55.76
2023-02-19T01:50:12.822Z,55.70
2023-02-19T01:53:23.288Z,54.98
2023-02-19T01:56:30.056Z,55.13
2023-02-19T01:59:35.019Z,55.00
2023-02-19T02:02:41.697Z,55.10
2023-02-19T02:05:56.249Z,56.42
2023-02-19T02:09:19.558Z,54.90
2023-02-19T02:12:23.787Z,55.89
2023-02-19T02:15:36.604Z,55.30
2023-02-19T02:18:54.558Z,55.28
2023-02-19T02:22:10.218Z,56.52
2023-02-19T02:25:45.351Z,55.64
2023-02-19T02:29:38.762Z,55.73
2023-02-19T02:32:54.762Z,55.41
2023-02-19T02:36:05.423Z,55.27
2023-02-19T02:39:17.634Z,54.75
2023-02-19T02:42:30.179Z,56.04
2023-02-19T02:45:45.375Z,55.13
2023-02-19T02:49:05.116Z,54.10
2023-02-19T02:52:36.980Z,54.77
2023-02-19T02:55:45.606Z,55.38
2023-02-19T02:58:57.335Z,55.17
2023-02-19T03:02:14.361Z,55.29
2023-02-19T03:05:43.221Z,56.03
2023-02-19T03:08:55.230Z,56.05
2023-02-19T03:12:21.403Z,55.89
2023-02-19T03:15:47.082Z,54.63
2023-02-19T03:19:13.916Z,55.23
2023-02-19T03:22:28.069Z,54.87
2023-02-19T03:25:51.843Z,54.60
2023-02-19T03:29:22.387Z,55.34
2023-02-19T03:32:33.920Z,55.31
2023-02-19T03:35:43.258Z,55.14
2023-02-19T03:38:57.693Z,55.59
2023-02-19T03:42:13.560Z,54.55
2023-02-19T03:45:36.522Z,54.15
2023-02-19T03:48:52.509Z,54.28
2023-02-19T03:52:02.945Z,55.14
2023-02-19T03:55:14.349Z,55.19
2023-02-19T03:58:27.004Z,55.27
2023-02-19T04:01:37.968Z,55.95
2023-02-19T04:04:49.102Z,55.50
2023-02-19T04:07:58.333Z,56.36
2023-02-19T04:11:11.533Z,56.54
2023-02-19T04:14:22.060Z,57.03
2023-02-19T04:17:32.088Z,56.72
2023-02-19T04:20:41.956Z,56.31
2023-02-19T04:23:47.738Z,55.65
2023-02-19T04:26:55.231Z,56.40
2023-02-19T04:30:01.611Z,56.28
2023-02-19T04:33:07.075Z,55.83
2023-02-19T04:36:14.440Z,55.86
2023-02-19T04:39:19.387Z,55.79
2023-02-19T04:42:24.668Z,56.52
2023-02-19T04:45:47.411Z,56.33
2023-02-19T04:48:51.217Z,55.40
2023-02-19T04:51:55.086Z,54.55
2023-02-19T04:54:58.621Z,54.96
2023-02-19T04:58:04.012Z,54.43
2023-02-19T05:01:10.213Z,54.83
2023-02-19T05:04:14.637Z,53.72
2023-02-19T05:07:18.794Z,53.95
2023-02-19T05:10:23.731Z,54.71
2023-02-19T05:13:31.856Z,54.25
2023-02-19T05:16:37.307Z,55.23
2023-02-19T05:19:41.372Z,55.70
2023-02-19T05:22:45.914Z,55.97
2023-02-19T05:25:49.477Z,55.17
2023-02-19T05:28:57.447Z,56.06
2023-02-19T05:32:02.950Z,55.82
2023-02-19T05:35:08.019Z,56.35
2023-02-19T05:38:13.088Z,56.17
2023-02-19T05:41:19.708Z,55.87
2023-02-19T05:44:26.143Z,54.71
2023-02-19T05:47:30.565Z,54.45
2023-02-19T05:50:39.869Z,54.99
2023-02-19T05:53:52.088Z,54.64
2023-02-19T05:56:57.520Z,55.17
2023-02-19T06:00:03.300Z,55.18
2023-02-19T06:03:17.872Z,55.52
2023-02-19T06:06:23.119Z,55.34
2023-02-19T06:09:28.130Z,56.33
2023-02-19T06:12:33.663Z,55.76
2023-02-19T06:15:40.577Z,55.99
2023-02-19T06:18:45.100Z,56.89
2023-02-19T06:21:51.847Z,57.54
2023-02-19T06:24:56.995Z,56.30
2023-02-19T06:28:03.096Z,55.74
2023-02-19T06:31:12.397Z,55.55
2023-02-19T06:34:16.760Z,55.28
2023-02-19T06:37:21.102Z,55.62
2023-02-19T06:40:46.561Z,56.14
2023-02-19T06:43:50.782Z,55.62
2023-02-19T06:46:57.532Z,55.38
2023-02-19T06:50:02.834Z,55.52
2023-02-19T06:53:38.138Z,55.33
2023-02-19T06:56:46.048Z,55.38
2023-02-19T06:59:59.017Z,55.65
2023-02-19T07:03:06.523Z,55.67
2023-02-19T07:06:10.376Z,56.05
2023-02-19T07:09:16.935Z,56.38
2023-02-19T07:12:23.933Z,56.40
2023-02-19T07:15:29.969Z,55.93
2023-02-19T07:18:50.195Z,55.94
2023-02-19T07:22:00.549Z,56.00
2023-02-19T07:25:13.292Z,55.71
2023-02-19T07:28:19.517Z,56.11
2023-02-19T07:31:25.389Z,56.17
2023-02-19T07:34:43.991Z,55.60
2023-02-19T07:37:48.249Z,55.64
2023-02-19T07:40:54.353Z,55.82
2023-02-19T07:43:57.986Z,55.94
2023-02-19T07:47:05.503Z,55.67
2023-02-19T07:50:13.970Z,55.63
2023-02-19T07:53:20.525Z,55.34
2023-02-19T07:56:40.953Z,56.53
2023-02-19T08:00:01.381Z,56.04
2023-02-19T08:03:12.516Z,56.25
2023-02-19T08:06:19.297Z,55.96
2023-02-19T08:09:34.126Z,56.60
2023-02-19T08:13:16.141Z,57.35
2023-02-19T08:16:33.250Z,57.62
2023-02-19T08:19:47.707Z,57.89
2023-02-19T08:22:52.742Z,57.52
2023-02-19T08:26:01.022Z,58.19
2023-02-19T08:29:09.161Z,58.22
2023-02-19T08:32:17.157Z,57.92
2023-02-19T08:35:21.084Z,57.86
2023-02-19T08:38:28.295Z,57.62
2023-02-19T08:41:33.120Z,57.82
2023-02-19T08:44:38.030Z,57.16
2023-02-19T08:47:43.448Z,57.87
2023-02-19T08:50:56.936Z,56.96
2023-02-19T08:54:05.299Z,55.29
2023-02-19T08:57:13.615Z,54.92
2023-02-19T09:00:18.510Z,54.54
2023-02-19T09:03:26.741Z,54.19
2023-02-19T09:06:31.729Z,53.79
2023-02-19T09:09:39.653Z,54.30
2023-02-19T09:12:45.286Z,54.26
2023-02-19T09:15:50.687Z,53.25
2023-02-19T09:18:54.394Z,53.86
2023-02-19T09:21:59.843Z,53.04
2023-02-19T09:25:08.106Z,52.24
2023-02-19T09:28:11.973Z,52.41
2023-02-19T09:31:23.370Z,51.44
2023-02-19T09:34:29.737Z,51.63
2023-02-19T09:37:34.246Z,52.13
2023-02-19T09:40:40.523Z,50.94
2023-02-19T09:43:45.441Z,51.17
2023-02-19T09:46:52.365Z,51.00
2023-02-19T09:50:02.100Z,51.50
2023-02-19T09:53:15.789Z,49.79
2023-02-19T09:56:26.780Z,50.79
2023-02-19T09:59:38.282Z,49.81
2023-02-19T10:03:07.284Z,49.45
2023-02-19T10:06:20.564Z,50.16
2023-02-19T10:09:27.042Z,49.71
2023-02-19T10:12:35.168Z,48.82
2023-02-19T10:15:43.945Z,49.96
2023-02-19T10:18:48.909Z,49.70
2023-02-19T10:21:52.751Z,48.76
2023-02-19T10:24:58.052Z,48.69
2023-02-19T10:28:05.892Z,48.74
2023-02-19T10:31:20.555Z,47.55
2023-02-19T10:34:24.633Z,47.48
2023-02-19T10:37:29.460Z,47.60
2023-02-19T10:40:34.624Z,47.54
2023-02-19T10:43:44.545Z,46.90
2023-02-19T10:46:52.041Z,46.77
2023-02-19T10:50:02.509Z,47.23
2023-02-19T10:53:07.955Z,46.13
2023-02-19T10:56:16.332Z,46.57
2023-02-19T10:59:26.781Z,45.83
2023-02-19T11:02:32.218Z,46.18
2023-02-19T11:05:39.386Z,46.71
2023-02-19T11:08:54.442Z,46.12
2023-02-19T11:11:59.590Z,45.98
2023-02-19T11:15:22.868Z,46.06
2023-02-19T11:18:28.613Z,45.63
2023-02-19T11:21:33.545Z,45.91
2023-02-19T11:24:40.656Z,45.41
2023-02-19T11:27:56.327Z,44.66
2023-02-19T11:31:25.414Z,44.63
2023-02-19T11:34:31.230Z,44.85
2023-02-19T11:37:34.758Z,44.12
2023-02-19T11:40:45.516Z,44.41
2023-02-19T11:44:03.234Z,43.29
2023-02-19T11:47:34.529Z,42.99
2023-02-19T11:50:50.009Z,43.24
2023-02-19T11:54:06.121Z,41.41
2023-02-19T11:57:21.318Z,42.27
2023-02-19T12:00:31.698Z,43.03
2023-02-19T12:03:55.938Z,42.28
2023-02-19T12:07:13.147Z,42.60
2023-02-19T12:10:23.481Z,40.83
2023-02-19T12:13:41.542Z,41.10
2023-02-19T12:16:55.140Z,40.10
2023-02-19T12:20:13.762Z,40.51
2023-02-19T12:23:42.113Z,41.35
2023-02-19T12:26:52.854Z,40.76
2023-02-19T12:30:18.404Z,40.59
2023-02-19T12:33:56.910Z,39.08
2023-02-19T12:37:17.797Z,39.80
2023-02-19T12:40:44.588Z,38.78
2023-02-19T12:43:56.639Z,38.12
2023-02-19T12:47:03.459Z,37.98
2023-02-19T12:50:16.630Z,38.83
2023-02-19T12:53:35.076Z,38.15
2023-02-19T12:56:43.652Z,38.18
2023-02-19T14:06:09.957Z,46.06
2023-02-19T14:09:47.510Z,45.41
2023-02-19T14:12:51.090Z,44.92
2023-02-19T14:15:55.198Z,44.32
2023-02-19T14:18:59.469Z,44.47
2023-02-19T14:22:45.062Z,43.98
2023-02-19T14:26:36.630Z,43.99
2023-02-19T14:29:44.523Z,44.39
2023-02-19T14:33:25.634Z,44.11
2023-02-19T14:36:51.558Z,43.79
2023-02-19T14:40:01.481Z,44.22
2023-02-19T14:43:07.394Z,44.48
2023-02-19T14:46:19.855Z,44.54
2023-02-19T14:49:31.446Z,43.82
2023-02-19T14:52:44.502Z,44.27
2023-02-19T14:55:51.991Z,44.68
2023-02-19T14:59:10.725Z,44.65
2023-02-19T15:02:17.867Z,44.46
2023-02-19T15:05:31.025Z,44.59
2023-02-19T15:08:39.304Z,44.62
2023-02-19T15:11:52.067Z,44.44
2023-02-19T15:15:02.392Z,44.64
2023-02-19T15:18:10.026Z,44.30
2023-02-19T15:21:27.718Z,44.56
2023-02-19T15:24:31.766Z,44.32
2023-02-19T15:27:40.229Z,44.33
2023-02-19T15:30:44.910Z,44.04
2023-02-19T15:33:55.946Z,44.29
2023-02-19T15:37:16.075Z,44.02
2023-02-19T15:40:30.921Z,44.04
2023-02-19T15:43:51.238Z,44.13
2023-02-19T15:46:57.387Z,44.27
2023-02-19T15:50:09.866Z,44.08
2023-02-19T15:53:47.362Z,44.04
2023-02-19T15:57:10.929Z,44.67
2023-02-19T16:00:23.404Z,44.75
2023-02-19T16:03:29.285Z,44.84
2023-02-19T16:06:54.677Z,45.34
2023-02-19T16:10:09.669Z,45.49
2023-02-19T16:13:14.452Z,45.68
2023-02-19T16:16:27.927Z,45.95
2023-02-19T16:19:44.497Z,46.14
2023-02-19T16:22:49.662Z,46.48
2023-02-19T16:26:00.333Z,46.51
2023-02-19T16:29:29.685Z,46.75
2023-02-19T16:32:54.449Z,46.85
2023-02-19T16:36:32.629Z,47.02
2023-02-19T16:40:27.458Z,47.67
2023-02-19T16:43:42.178Z,47.76
2023-02-19T16:47:04.402Z,47.73
2023-02-19T16:50:19.760Z,48.13
2023-02-19T16:53:30.708Z,48.48
2023-02-19T16:56:39.229Z,48.68
2023-02-19T16:59:48.736Z,48.81
2023-02-19T17:02:55.013Z,49.48
2023-02-19T17:06:00.399Z,49.85
2023-02-19T17:09:09.859Z,49.31
2023-02-19T17:12:25.928Z,48.86
2023-02-19T17:15:33.043Z,49.29
2023-02-19T17:18:38.937Z,49.56
2023-02-19T17:21:47.277Z,49.75
2023-02-19T17:24:51.499Z,50.37
2023-02-19T17:27:55.992Z,50.33
2023-02-19T17:31:00.247Z,50.69
2023-02-19T17:34:05.502Z,51.05
2023-02-19T17:37:16.390Z,50.50
2023-02-19T17:40:32.779Z,50.82
2023-02-19T17:43:40.061Z,51.26
2023-02-19T17:46:50.660Z,51.47
2023-02-19T17:50:03.205Z,51.58
2023-02-19T17:53:09.742Z,50.96
2023-02-19T17:56:18.668Z,51.28
2023-02-19T17:59:29.019Z,51.36
2023-02-19T18:02:39.125Z,51.47
2023-02-19T18:05:47.470Z,51.21
2023-02-19T18:08:54.508Z,51.63
2023-02-19T18:11:58.362Z,51.35
2023-02-19T18:15:04.322Z,51.31
2023-02-19T18:18:09.857Z,51.00
2023-02-19T18:21:16.372Z,51.88
2023-02-19T18:24:27.643Z,51.75
2023-02-19T18:27:32.539Z,51.25
2023-02-19T18:30:38.181Z,51.53
2023-02-19T18:33:42.183Z,51.47
2023-02-19T18:36:46.389Z,52.30
2023-02-19T18:39:54.283Z,52.65
2023-02-19T18:43:00.606Z,51.81
2023-02-19T18:46:10.005Z,52.18
2023-02-19T18:49:14.982Z,51.85
2023-02-19T18:52:21.425Z,52.46
2023-02-19T18:55:27.595Z,52.12
2023-02-19T18:58:32.040Z,52.21
2023-02-19T19:01:36.698Z,52.19
2023-02-19T19:04:41.719Z,52.67
2023-02-19T19:07:46.646Z,53.25
2023-02-19T19:10:56.479Z,52.19
2023-02-19T19:14:11.152Z,53.28
2023-02-19T19:17:31.843Z,53.09
2023-02-19T19:20:41.333Z,52.06
2023-02-19T19:23:51.089Z,52.31
2023-02-19T19:27:00.024Z,52.13
2023-02-19T19:34:08.867Z,52.13
2023-02-19T19:37:13.203Z,52.22
2023-02-19T19:40:19.565Z,51.96
2023-02-19T19:43:28.025Z,51.95
2023-02-19T19:46:33.691Z,52.04
2023-02-19T19:49:37.784Z,52.57
2023-02-19T19:52:41.824Z,53.77
2023-02-19T19:55:45.926Z,53.43
2023-02-19T19:58:52.485Z,53.94
2023-02-19T20:01:58.773Z,53.78
2023-02-19T20:05:03.041Z,54.52
2023-02-19T20:08:07.493Z,54.60
2023-02-19T20:11:11.063Z,54.48
2023-02-19T20:14:17.601Z,53.98
2023-02-19T20:17:28.940Z,54.21
2023-02-19T20:20:41.144Z,54.90
2023-02-19T20:23:49.743Z,54.24
2023-02-19T20:26:58.493Z,53.93
2023-02-19T20:30:03.904Z,54.63
2023-02-19T20:33:08.493Z,53.67
2023-02-19T20:36:13.704Z,53.82
2023-02-19T20:39:23.033Z,55.75
2023-02-19T20:42:29.894Z,54.70
2023-02-19T20:45:39.005Z,54.98
2023-02-19T20:48:43.570Z,55.73
2023-02-19T20:51:52.082Z,55.54
2023-02-19T20:54:57.930Z,55.33
2023-02-19T20:58:02.478Z,55.26
2023-02-19T21:01:09.471Z,55.49
2023-02-19T21:04:15.872Z,55.76
2023-02-19T21:07:20.014Z,55.28
2023-02-19T21:10:24.501Z,55.13
2023-02-19T21:13:31.594Z,54.58
2023-02-19T21:16:38.457Z,54.68
2023-02-19T21:19:42.224Z,54.89
2023-02-19T21:22:46.579Z,54.88
2023-02-19T21:25:54.511Z,54.44
2023-02-19T21:29:00.338Z,55.30
2023-02-19T21:32:14.197Z,55.55
2023-02-19T21:35:19.464Z,54.77
2023-02-19T21:38:24.467Z,54.66
2023-02-19T21:41:30.086Z,54.92
2023-02-19T21:44:36.573Z,54.52
2023-02-19T21:47:46.365Z,55.26
2023-02-19T21:50:51.252Z,55.71
2023-02-19T21:53:56.715Z,55.10
2023-02-19T21:57:03.894Z,54.87
2023-02-19T22:00:10.747Z,54.96
2023-02-19T22:03:18.028Z,55.37
2023-02-19T22:06:25.255Z,55.54
2023-02-19T22:09:30.161Z,56.07
2023-02-19T22:12:34.240Z,55.31
2023-02-19T22:15:38.189Z,55.42
2023-02-19T22:18:49.131Z,55.19
2023-02-19T22:21:53.453Z,55.65
2023-02-19T22:24:57.973Z,55.28
2023-02-19T22:28:05.240Z,55.42
2023-02-19T22:31:11.142Z,55.71
2023-02-19T22:34:17.806Z,56.13
2023-02-19T22:37:22.848Z,56.70
2023-02-19T22:40:26.378Z,56.53
2023-02-19T22:43:30.803Z,56.77
2023-02-19T22:46:34.873Z,57.99
2023-02-19T22:49:42.088Z,58.01
2023-02-19T22:52:48.851Z,58.42
2023-02-19T22:55:55.888Z,59.39
2023-02-19T22:59:00.247Z,58.88
2023-02-19T23:02:04.105Z,59.19
2023-02-19T23:05:09.910Z,58.90
2023-02-19T23:08:14.131Z,58.89
2023-02-19T23:11:23.379Z,58.53
2023-02-19T23:14:27.389Z,58.62
2023-02-19T23:17:31.153Z,58.59
2023-02-19T23:20:36.760Z,59.11
2023-02-19T23:23:42.381Z,59.63
2023-02-19T23:26:48.525Z,59.66
2023-02-19T23:29:55.817Z,59.11
2023-02-19T23:33:05.544Z,58.80
2023-02-19T23:36:13.320Z,59.48
2023-02-19T23:39:22.516Z,59.22
2023-02-19T23:42:28.428Z,59.23
2023-02-19T23:45:32.702Z,59.40
2023-02-19T23:48:38.262Z,59.79
2023-02-19T23:51:44.434Z,60.40
2023-02-19T23:54:48.330Z,60.46
2023-02-19T23:57:57.058Z,60.01
